sensor_id;sensor_type;location;lat;lon;timestamp;P1;durP1;ratioP1;P2;durP2;ratioP2
1613;SDS011;800;48.824;9.346;2023-10-19T00:00:38;17.90;;;13.07;;
1613;SDS011;800;48.824;9.346;2023-10-19T00:03:05;14.07;;;12.67;;
1613;SDS011;800;48.824;9.346;2023-10-19T00:05:32;13.80;;;12.03;;
1613;SDS011;800;48.824;9.346;2023-10-19T00:07:58;15.67;;;12.30;;
1613;SDS011;800;48.824;9.346;2023-10-19T00:10:26;13.73;;;11.90;;
1613;SDS011;800;48.824;9.346;2023-10-19T00:12:57;14.53;;;10.73;;
1613;SDS011;800;48.824;9.346;2023-10-19T00:15:29;15.33;;;13.57;;
1613;SDS011;800;48.824;9.346;2023-10-19T00:17:57;15.80;;;13.80;;
1613;SDS011;800;48.824;9.346;2023-10-19T00:20:30;15.70;;;14.10;;
1613;SDS011;800;48.824;9.346;2023-10-19T00:23:16;16.10;;;14.47;;
1613;SDS011;800;48.824;9.346;2023-10-19T00:25:51;20.30;;;13.27;;
1613;SDS011;800;48.824;9.346;2023-10-19T00:28:17;14.63;;;13.13;;
1613;SDS011;800;48.824;9.346;2023-10-19T00:30:43;14.13;;;12.50;;
1613;SDS011;800;48.824;9.346;2023-10-19T00:33:10;15.53;;;13.80;;
1613;SDS011;800;48.824;9.346;2023-10-19T00:35:47;13.50;;;12.10;;
1613;SDS011;800;48.824;9.346;2023-10-19T00:38:24;14.90;;;13.27;;
1613;SDS011;800;48.824;9.346;2023-10-19T00:40:55;13.67;;;11.40;;
1613;SDS011;800;48.824;9.346;2023-10-19T00:43:36;13.13;;;11.93;;
1613;SDS011;800;48.824;9.346;2023-10-19T00:46:13;12.70;;;11.43;;
1613;SDS011;800;48.824;9.346;2023-10-19T00:48:54;12.83;;;11.67;;
1613;SDS011;800;48.824;9.346;2023-10-19T00:51:26;15.77;;;13.47;;
1613;SDS011;800;48.824;9.346;2023-10-19T00:54:03;15.67;;;13.20;;
1613;SDS011;800;48.824;9.346;2023-10-19T00:56:42;13.40;;;11.40;;
1613;SDS011;800;48.824;9.346;2023-10-19T00:59:13;13.70;;;12.20;;
1613;SDS011;800;48.824;9.346;2023-10-19T01:01:46;14.00;;;11.80;;
1613;SDS011;800;48.824;9.346;2023-10-19T01:04:14;14.27;;;11.97;;
1613;SDS011;800;48.824;9.346;2023-10-19T01:06:45;15.60;;;11.37;;
1613;SDS011;800;48.824;9.346;2023-10-19T01:09:26;13.97;;;12.57;;
1613;SDS011;800;48.824;9.346;2023-10-19T01:11:52;13.97;;;12.43;;
1613;SDS011;800;48.824;9.346;2023-10-19T01:14:19;14.53;;;13.07;;
1613;SDS011;800;48.824;9.346;2023-10-19T01:16:52;12.80;;;10.93;;
1613;SDS011;800;48.824;9.346;2023-10-19T01:19:22;15.73;;;14.10;;
1613;SDS011;800;48.824;9.346;2023-10-19T01:21:48;15.20;;;13.60;;
1613;SDS011;800;48.824;9.346;2023-10-19T01:24:21;15.20;;;13.17;;
1613;SDS011;800;48.824;9.346;2023-10-19T01:27:06;16.07;;;14.37;;
1613;SDS011;800;48.824;9.346;2023-10-19T01:29:34;15.10;;;13.50;;
1613;SDS011;800;48.824;9.346;2023-10-19T01:32:02;16.13;;;14.23;;
1613;SDS011;800;48.824;9.346;2023-10-19T01:34:33;15.63;;;14.17;;
1613;SDS011;800;48.824;9.346;2023-10-19T01:37:00;14.73;;;13.23;;
1613;SDS011;800;48.824;9.346;2023-10-19T01:39:30;14.10;;;12.60;;
1613;SDS011;800;48.824;9.346;2023-10-19T01:41:57;12.90;;;11.60;;
1613;SDS011;800;48.824;9.346;2023-10-19T01:44:23;13.47;;;11.23;;
1613;SDS011;800;48.824;9.346;2023-10-19T01:46:49;12.97;;;9.17;;
1613;SDS011;800;48.824;9.346;2023-10-19T01:49:15;9.83;;;8.73;;
1613;SDS011;800;48.824;9.346;2023-10-19T01:51:51;9.50;;;8.60;;
1613;SDS011;800;48.824;9.346;2023-10-19T01:54:17;10.13;;;8.47;;
1613;SDS011;800;48.824;9.346;2023-10-19T01:56:47;9.37;;;8.27;;
1613;SDS011;800;48.824;9.346;2023-10-19T01:59:15;7.97;;;7.27;;
1613;SDS011;800;48.824;9.346;2023-10-19T02:01:41;9.83;;;7.60;;
1613;SDS011;800;48.824;9.346;2023-10-19T02:04:10;9.63;;;8.40;;
1613;SDS011;800;48.824;9.346;2023-10-19T02:06:38;8.10;;;7.17;;
1613;SDS011;800;48.824;9.346;2023-10-19T02:11:41;7.93;;;7.13;;
1613;SDS011;800;48.824;9.346;2023-10-19T02:14:07;7.90;;;6.17;;
1613;SDS011;800;48.824;9.346;2023-10-19T02:16:42;7.10;;;6.00;;
1613;SDS011;800;48.824;9.346;2023-10-19T02:19:09;9.23;;;7.40;;
1613;SDS011;800;48.824;9.346;2023-10-19T02:21:35;8.20;;;7.00;;
1613;SDS011;800;48.824;9.346;2023-10-19T02:24:07;9.20;;;7.33;;
1613;SDS011;800;48.824;9.346;2023-10-19T02:26:34;6.83;;;6.13;;
1613;SDS011;800;48.824;9.346;2023-10-19T02:29:02;6.50;;;5.90;;
1613;SDS011;800;48.824;9.346;2023-10-19T02:31:32;9.27;;;7.30;;
1613;SDS011;800;48.824;9.346;2023-10-19T02:33:59;9.30;;;8.50;;
1613;SDS011;800;48.824;9.346;2023-10-19T02:36:27;13.67;;;8.67;;
1613;SDS011;800;48.824;9.346;2023-10-19T02:38:58;10.60;;;9.47;;
1613;SDS011;800;48.824;9.346;2023-10-19T02:41:25;10.30;;;9.40;;
1613;SDS011;800;48.824;9.346;2023-10-19T02:43:52;10.63;;;9.50;;
1613;SDS011;800;48.824;9.346;2023-10-19T02:46:35;11.83;;;9.47;;
1613;SDS011;800;48.824;9.346;2023-10-19T02:49:04;10.93;;;9.00;;
1613;SDS011;800;48.824;9.346;2023-10-19T02:51:39;10.57;;;9.47;;
1613;SDS011;800;48.824;9.346;2023-10-19T02:54:08;10.73;;;9.40;;
1613;SDS011;800;48.824;9.346;2023-10-19T02:56:41;11.80;;;10.67;;
1613;SDS011;800;48.824;9.346;2023-10-19T02:59:09;9.57;;;8.67;;
1613;SDS011;800;48.824;9.346;2023-10-19T03:01:34;9.73;;;8.80;;
1613;SDS011;800;48.824;9.346;2023-10-19T03:04:00;11.53;;;10.10;;
1613;SDS011;800;48.824;9.346;2023-10-19T03:06:27;10.50;;;9.40;;
1613;SDS011;800;48.824;9.346;2023-10-19T03:08:57;11.17;;;10.07;;
1613;SDS011;800;48.824;9.346;2023-10-19T03:11:28;11.07;;;10.00;;
1613;SDS011;800;48.824;9.346;2023-10-19T03:13:54;12.00;;;9.77;;
1613;SDS011;800;48.824;9.346;2023-10-19T03:16:22;12.60;;;9.50;;
1613;SDS011;800;48.824;9.346;2023-10-19T03:18:48;9.80;;;8.80;;
1613;SDS011;800;48.824;9.346;2023-10-19T03:21:20;10.60;;;9.70;;
1613;SDS011;800;48.824;9.346;2023-10-19T03:23:51;11.20;;;9.00;;
1613;SDS011;800;48.824;9.346;2023-10-19T03:26:21;10.23;;;9.27;;
1613;SDS011;800;48.824;9.346;2023-10-19T03:28:52;10.33;;;9.33;;
1613;SDS011;800;48.824;9.346;2023-10-19T03:31:21;11.80;;;10.20;;
1613;SDS011;800;48.824;9.346;2023-10-19T03:33:48;10.10;;;9.00;;
1613;SDS011;800;48.824;9.346;2023-10-19T03:36:19;9.97;;;9.00;;
1613;SDS011;800;48.824;9.346;2023-10-19T03:38:48;9.80;;;8.80;;
1613;SDS011;800;48.824;9.346;2023-10-19T03:41:16;9.33;;;8.23;;
1613;SDS011;800;48.824;9.346;2023-10-19T03:43:46;9.67;;;8.37;;
1613;SDS011;800;48.824;9.346;2023-10-19T03:46:13;11.30;;;8.50;;
1613;SDS011;800;48.824;9.346;2023-10-19T03:48:48;9.83;;;8.90;;
1613;SDS011;800;48.824;9.346;2023-10-19T03:51:13;10.23;;;8.27;;
1613;SDS011;800;48.824;9.346;2023-10-19T03:53:39;9.17;;;7.83;;
1613;SDS011;800;48.824;9.346;2023-10-19T03:56:11;9.30;;;8.13;;
1613;SDS011;800;48.824;9.346;2023-10-19T03:58:37;11.30;;;7.80;;
1613;SDS011;800;48.824;9.346;2023-10-19T04:01:05;9.90;;;8.87;;
1613;SDS011;800;48.824;9.346;2023-10-19T04:03:32;9.83;;;8.87;;
1613;SDS011;800;48.824;9.346;2023-10-19T04:05:57;12.13;;;9.87;;
1613;SDS011;800;48.824;9.346;2023-10-19T04:08:26;9.10;;;8.20;;
1613;SDS011;800;48.824;9.346;2023-10-19T04:10:52;9.07;;;8.17;;
1613;SDS011;800;48.824;9.346;2023-10-19T04:13:34;8.70;;;7.90;;
1613;SDS011;800;48.824;9.346;2023-10-19T04:16:02;9.47;;;8.17;;
1613;SDS011;800;48.824;9.346;2023-10-19T04:18:28;8.63;;;7.30;;
1613;SDS011;800;48.824;9.346;2023-10-19T04:20:54;9.20;;;7.50;;
1613;SDS011;800;48.824;9.346;2023-10-19T04:23:20;9.37;;;7.07;;
1613;SDS011;800;48.824;9.346;2023-10-19T04:25:52;7.90;;;7.07;;
1613;SDS011;800;48.824;9.346;2023-10-19T04:28:21;9.53;;;7.57;;
1613;SDS011;800;48.824;9.346;2023-10-19T04:30:55;7.47;;;6.70;;
1613;SDS011;800;48.824;9.346;2023-10-19T04:33:21;8.00;;;7.30;;
1613;SDS011;800;48.824;9.346;2023-10-19T04:35:50;10.10;;;9.20;;
1613;SDS011;800;48.824;9.346;2023-10-19T04:38:20;11.67;;;9.07;;
1613;SDS011;800;48.824;9.346;2023-10-19T04:40:49;9.50;;;8.47;;
1613;SDS011;800;48.824;9.346;2023-10-19T04:43:15;7.90;;;7.13;;
1613;SDS011;800;48.824;9.346;2023-10-19T04:45:41;7.47;;;6.33;;
1613;SDS011;800;48.824;9.346;2023-10-19T04:48:09;10.13;;;9.00;;
1613;SDS011;800;48.824;9.346;2023-10-19T04:50:35;11.87;;;8.00;;
1613;SDS011;800;48.824;9.346;2023-10-19T04:53:00;9.30;;;7.37;;
1613;SDS011;800;48.824;9.346;2023-10-19T04:55:27;7.67;;;7.03;;
1613;SDS011;800;48.824;9.346;2023-10-19T04:57:55;8.03;;;7.23;;
1613;SDS011;800;48.824;9.346;2023-10-19T05:00:21;8.90;;;8.00;;
1613;SDS011;800;48.824;9.346;2023-10-19T05:02:49;7.80;;;7.00;;
1613;SDS011;800;48.824;9.346;2023-10-19T05:05:16;6.80;;;6.20;;
1613;SDS011;800;48.824;9.346;2023-10-19T05:07:43;7.20;;;6.50;;
1613;SDS011;800;48.824;9.346;2023-10-19T05:10:08;8.70;;;7.00;;
1613;SDS011;800;48.824;9.346;2023-10-19T05:12:34;10.50;;;8.10;;
1613;SDS011;800;48.824;9.346;2023-10-19T05:14:59;8.87;;;7.97;;
1613;SDS011;800;48.824;9.346;2023-10-19T05:17:25;8.97;;;8.07;;
1613;SDS011;800;48.824;9.346;2023-10-19T05:19:52;9.80;;;8.80;;
1613;SDS011;800;48.824;9.346;2023-10-19T05:22:18;8.13;;;7.40;;
1613;SDS011;800;48.824;9.346;2023-10-19T05:24:44;8.03;;;7.33;;
1613;SDS011;800;48.824;9.346;2023-10-19T05:27:10;7.10;;;6.40;;
1613;SDS011;800;48.824;9.346;2023-10-19T05:29:37;10.70;;;8.30;;
1613;SDS011;800;48.824;9.346;2023-10-19T05:32:03;8.80;;;7.90;;
1613;SDS011;800;48.824;9.346;2023-10-19T05:34:29;8.97;;;8.07;;
1613;SDS011;800;48.824;9.346;2023-10-19T05:36:57;8.33;;;7.17;;
1613;SDS011;800;48.824;9.346;2023-10-19T05:39:27;8.03;;;6.87;;
1613;SDS011;800;48.824;9.346;2023-10-19T05:41:54;8.20;;;7.30;;
1613;SDS011;800;48.824;9.346;2023-10-19T05:44:20;10.80;;;7.73;;
1613;SDS011;800;48.824;9.346;2023-10-19T05:46:46;8.20;;;7.40;;
1613;SDS011;800;48.824;9.346;2023-10-19T05:49:12;11.07;;;7.20;;
1613;SDS011;800;48.824;9.346;2023-10-19T05:51:38;8.43;;;7.63;;
1613;SDS011;800;48.824;9.346;2023-10-19T05:54:04;9.73;;;8.80;;
1613;SDS011;800;48.824;9.346;2023-10-19T05:56:33;11.67;;;7.30;;
1613;SDS011;800;48.824;9.346;2023-10-19T05:59:01;10.43;;;8.00;;
1613;SDS011;800;48.824;9.346;2023-10-19T06:01:27;26.70;;;10.90;;
1613;SDS011;800;48.824;9.346;2023-10-19T06:03:52;15.90;;;9.90;;
1613;SDS011;800;48.824;9.346;2023-10-19T06:06:19;18.47;;;10.00;;
1613;SDS011;800;48.824;9.346;2023-10-19T06:08:45;15.60;;;10.27;;
1613;SDS011;800;48.824;9.346;2023-10-19T06:11:11;10.47;;;9.20;;
1613;SDS011;800;48.824;9.346;2023-10-19T06:13:36;9.83;;;8.50;;
1613;SDS011;800;48.824;9.346;2023-10-19T06:16:02;9.60;;;8.63;;
1613;SDS011;800;48.824;9.346;2023-10-19T06:18:27;10.27;;;8.27;;
1613;SDS011;800;48.824;9.346;2023-10-19T06:20:54;9.17;;;8.37;;
1613;SDS011;800;48.824;9.346;2023-10-19T06:23:20;8.87;;;8.03;;
1613;SDS011;800;48.824;9.346;2023-10-19T06:25:45;9.87;;;8.87;;
1613;SDS011;800;48.824;9.346;2023-10-19T06:28:11;10.73;;;9.53;;
1613;SDS011;800;48.824;9.346;2023-10-19T06:30:37;9.30;;;8.40;;
1613;SDS011;800;48.824;9.346;2023-10-19T06:33:05;11.40;;;8.57;;
1613;SDS011;800;48.824;9.346;2023-10-19T06:35:31;9.60;;;8.80;;
1613;SDS011;800;48.824;9.346;2023-10-19T06:37:57;8.83;;;8.03;;
1613;SDS011;800;48.824;9.346;2023-10-19T06:40:24;9.20;;;7.87;;
1613;SDS011;800;48.824;9.346;2023-10-19T06:42:51;9.73;;;7.93;;
1613;SDS011;800;48.824;9.346;2023-10-19T06:45:20;8.50;;;7.50;;
1613;SDS011;800;48.824;9.346;2023-10-19T06:47:47;8.70;;;7.80;;
1613;SDS011;800;48.824;9.346;2023-10-19T06:50:15;8.70;;;7.90;;
1613;SDS011;800;48.824;9.346;2023-10-19T06:52:43;11.77;;;8.87;;
1613;SDS011;800;48.824;9.346;2023-10-19T06:55:10;10.57;;;7.97;;
1613;SDS011;800;48.824;9.346;2023-10-19T06:57:40;9.30;;;8.50;;
1613;SDS011;800;48.824;9.346;2023-10-19T07:00:08;9.00;;;8.10;;
1613;SDS011;800;48.824;9.346;2023-10-19T07:02:44;9.67;;;8.80;;
1613;SDS011;800;48.824;9.346;2023-10-19T07:05:11;8.93;;;8.03;;
1613;SDS011;800;48.824;9.346;2023-10-19T07:07:39;8.70;;;7.90;;
1613;SDS011;800;48.824;9.346;2023-10-19T07:10:10;9.17;;;8.27;;
1613;SDS011;800;48.824;9.346;2023-10-19T07:12:38;8.70;;;7.90;;
1613;SDS011;800;48.824;9.346;2023-10-19T07:15:05;7.63;;;6.70;;
1613;SDS011;800;48.824;9.346;2023-10-19T07:17:38;7.87;;;7.17;;
1613;SDS011;800;48.824;9.346;2023-10-19T07:20:07;9.30;;;8.40;;
1613;SDS011;800;48.824;9.346;2023-10-19T07:22:34;6.67;;;6.10;;
1613;SDS011;800;48.824;9.346;2023-10-19T07:25:04;7.57;;;6.90;;
1613;SDS011;800;48.824;9.346;2023-10-19T07:27:31;8.00;;;7.20;;
1613;SDS011;800;48.824;9.346;2023-10-19T07:29:58;7.67;;;6.87;;
1613;SDS011;800;48.824;9.346;2023-10-19T07:32:24;7.30;;;6.43;;
1613;SDS011;800;48.824;9.346;2023-10-19T07:34:50;7.97;;;6.70;;
1613;SDS011;800;48.824;9.346;2023-10-19T07:37:15;7.10;;;6.30;;
1613;SDS011;800;48.824;9.346;2023-10-19T07:39:47;7.90;;;7.03;;
1613;SDS011;800;48.824;9.346;2023-10-19T07:42:14;7.97;;;7.17;;
1613;SDS011;800;48.824;9.346;2023-10-19T07:44:40;6.67;;;6.07;;
1613;SDS011;800;48.824;9.346;2023-10-19T07:47:06;7.00;;;6.40;;
1613;SDS011;800;48.824;9.346;2023-10-19T07:49:34;7.60;;;6.90;;
1613;SDS011;800;48.824;9.346;2023-10-19T07:52:05;8.83;;;6.67;;
1613;SDS011;800;48.824;9.346;2023-10-19T07:54:35;8.00;;;7.00;;
1613;SDS011;800;48.824;9.346;2023-10-19T07:57:02;9.00;;;6.53;;
1613;SDS011;800;48.824;9.346;2023-10-19T07:59:31;7.03;;;6.33;;
1613;SDS011;800;48.824;9.346;2023-10-19T08:02:00;7.27;;;6.37;;
1613;SDS011;800;48.824;9.346;2023-10-19T08:04:29;9.93;;;7.60;;
1613;SDS011;800;48.824;9.346;2023-10-19T08:06:55;10.60;;;7.40;;
1613;SDS011;800;48.824;9.346;2023-10-19T08:09:22;8.83;;;7.90;;
1613;SDS011;800;48.824;9.346;2023-10-19T08:11:51;10.27;;;6.77;;
1613;SDS011;800;48.824;9.346;2023-10-19T08:14:21;7.47;;;6.97;;
1613;SDS011;800;48.824;9.346;2023-10-19T08:16:49;7.67;;;6.97;;
1613;SDS011;800;48.824;9.346;2023-10-19T08:19:15;6.97;;;6.27;;
1613;SDS011;800;48.824;9.346;2023-10-19T08:21:41;7.90;;;7.20;;
1613;SDS011;800;48.824;9.346;2023-10-19T08:24:07;6.87;;;6.20;;
1613;SDS011;800;48.824;9.346;2023-10-19T08:26:38;9.10;;;6.40;;
1613;SDS011;800;48.824;9.346;2023-10-19T08:29:04;7.40;;;6.23;;
1613;SDS011;800;48.824;9.346;2023-10-19T08:31:37;7.23;;;6.60;;
1613;SDS011;800;48.824;9.346;2023-10-19T08:34:06;7.13;;;6.40;;
1613;SDS011;800;48.824;9.346;2023-10-19T08:36:34;7.63;;;6.80;;
1613;SDS011;800;48.824;9.346;2023-10-19T08:39:01;7.57;;;6.33;;
1613;SDS011;800;48.824;9.346;2023-10-19T08:41:30;6.20;;;5.60;;
1613;SDS011;800;48.824;9.346;2023-10-19T08:44:00;7.33;;;6.63;;
1613;SDS011;800;48.824;9.346;2023-10-19T08:46:27;6.47;;;5.60;;
1613;SDS011;800;48.824;9.346;2023-10-19T08:48:55;6.43;;;5.83;;
1613;SDS011;800;48.824;9.346;2023-10-19T08:51:21;6.50;;;5.90;;
1613;SDS011;800;48.824;9.346;2023-10-19T08:53:50;5.80;;;5.20;;
1613;SDS011;800;48.824;9.346;2023-10-19T08:56:19;6.23;;;5.63;;
1613;SDS011;800;48.824;9.346;2023-10-19T08:58:48;6.87;;;5.87;;
1613;SDS011;800;48.824;9.346;2023-10-19T09:01:17;7.20;;;5.93;;
1613;SDS011;800;48.824;9.346;2023-10-19T09:03:44;6.20;;;5.40;;
1613;SDS011;800;48.824;9.346;2023-10-19T09:06:11;5.17;;;4.67;;
1613;SDS011;800;48.824;9.346;2023-10-19T09:08:37;6.90;;;5.10;;
1613;SDS011;800;48.824;9.346;2023-10-19T09:11:06;5.50;;;4.97;;
1613;SDS011;800;48.824;9.346;2023-10-19T09:13:44;4.90;;;4.40;;
1613;SDS011;800;48.824;9.346;2023-10-19T09:16:12;4.80;;;4.40;;
1613;SDS011;800;48.824;9.346;2023-10-19T09:18:45;4.80;;;4.40;;
1613;SDS011;800;48.824;9.346;2023-10-19T09:21:11;4.60;;;4.20;;
1613;SDS011;800;48.824;9.346;2023-10-19T09:23:49;6.20;;;4.83;;
1613;SDS011;800;48.824;9.346;2023-10-19T09:26:16;5.00;;;4.00;;
1613;SDS011;800;48.824;9.346;2023-10-19T09:28:45;9.30;;;5.67;;
1613;SDS011;800;48.824;9.346;2023-10-19T09:31:12;13.27;;;5.40;;
1613;SDS011;800;48.824;9.346;2023-10-19T09:33:40;10.33;;;5.27;;
1613;SDS011;800;48.824;9.346;2023-10-19T09:36:06;4.97;;;4.47;;
1613;SDS011;800;48.824;9.346;2023-10-19T09:38:44;5.10;;;3.97;;
1613;SDS011;800;48.824;9.346;2023-10-19T09:41:12;6.43;;;4.77;;
1613;SDS011;800;48.824;9.346;2023-10-19T09:43:42;4.53;;;4.23;;
1613;SDS011;800;48.824;9.346;2023-10-19T09:46:18;6.50;;;4.30;;
1613;SDS011;800;48.824;9.346;2023-10-19T09:48:47;8.00;;;4.37;;
1613;SDS011;800;48.824;9.346;2023-10-19T09:51:14;4.50;;;4.10;;
1613;SDS011;800;48.824;9.346;2023-10-19T09:53:42;7.37;;;4.73;;
1613;SDS011;800;48.824;9.346;2023-10-19T09:56:10;7.40;;;4.43;;
1613;SDS011;800;48.824;9.346;2023-10-19T09:58:41;4.47;;;4.10;;
1613;SDS011;800;48.824;9.346;2023-10-19T10:01:11;5.77;;;4.90;;
1613;SDS011;800;48.824;9.346;2023-10-19T10:06:31;5.57;;;5.03;;
1613;SDS011;800;48.824;9.346;2023-10-19T10:09:18;4.97;;;4.47;;
1613;SDS011;800;48.824;9.346;2023-10-19T10:11:48;5.20;;;4.80;;
1613;SDS011;800;48.824;9.346;2023-10-19T10:14:20;4.77;;;4.33;;
1613;SDS011;800;48.824;9.346;2023-10-19T10:17:00;5.23;;;4.73;;
1613;SDS011;800;48.824;9.346;2023-10-19T10:19:34;5.03;;;4.57;;
1613;SDS011;800;48.824;9.346;2023-10-19T10:22:03;5.20;;;4.70;;
1613;SDS011;800;48.824;9.346;2023-10-19T10:24:42;6.27;;;4.40;;
1613;SDS011;800;48.824;9.346;2023-10-19T10:27:08;5.80;;;5.10;;
1613;SDS011;800;48.824;9.346;2023-10-19T10:29:35;6.37;;;5.77;;
1613;SDS011;800;48.824;9.346;2023-10-19T10:32:00;5.33;;;4.83;;
1613;SDS011;800;48.824;9.346;2023-10-19T10:36:59;5.93;;;4.97;;
1613;SDS011;800;48.824;9.346;2023-10-19T10:39:27;6.80;;;4.87;;
1613;SDS011;800;48.824;9.346;2023-10-19T10:41:55;9.07;;;5.10;;
1613;SDS011;800;48.824;9.346;2023-10-19T10:47:21;11.97;;;5.90;;
1613;SDS011;800;48.824;9.346;2023-10-19T10:49:50;7.80;;;5.60;;
1613;SDS011;800;48.824;9.346;2023-10-19T10:52:50;6.80;;;4.67;;
1613;SDS011;800;48.824;9.346;2023-10-19T10:55:09;7.93;;;4.57;;
1613;SDS011;800;48.824;9.346;2023-10-19T10:57:36;6.40;;;4.83;;
1613;SDS011;800;48.824;9.346;2023-10-19T11:02:41;4.90;;;4.40;;
1613;SDS011;800;48.824;9.346;2023-10-19T11:05:08;7.70;;;3.77;;
1613;SDS011;800;48.824;9.346;2023-10-19T11:07:37;5.87;;;4.73;;
1613;SDS011;800;48.824;9.346;2023-10-19T11:10:03;4.77;;;4.07;;
1613;SDS011;800;48.824;9.346;2023-10-19T11:12:29;3.87;;;3.50;;
1613;SDS011;800;48.824;9.346;2023-10-19T11:14:55;5.17;;;3.67;;
1613;SDS011;800;48.824;9.346;2023-10-19T11:17:25;8.00;;;4.23;;
1613;SDS011;800;48.824;9.346;2023-10-19T11:19:56;5.40;;;4.27;;
1613;SDS011;800;48.824;9.346;2023-10-19T11:22:23;4.80;;;4.07;;
1613;SDS011;800;48.824;9.346;2023-10-19T11:24:53;4.07;;;3.20;;
1613;SDS011;800;48.824;9.346;2023-10-19T11:27:23;4.90;;;3.50;;
1613;SDS011;800;48.824;9.346;2023-10-19T11:29:56;5.97;;;3.20;;
1613;SDS011;800;48.824;9.346;2023-10-19T11:32:23;6.80;;;4.40;;
1613;SDS011;800;48.824;9.346;2023-10-19T11:34:50;3.83;;;2.87;;
1613;SDS011;800;48.824;9.346;2023-10-19T11:37:17;4.33;;;3.03;;
1613;SDS011;800;48.824;9.346;2023-10-19T11:39:42;2.93;;;2.73;;
1613;SDS011;800;48.824;9.346;2023-10-19T11:42:08;3.13;;;2.93;;
1613;SDS011;800;48.824;9.346;2023-10-19T11:44:35;2.87;;;2.50;;
1613;SDS011;800;48.824;9.346;2023-10-19T11:47:01;5.60;;;3.20;;
1613;SDS011;800;48.824;9.346;2023-10-19T11:49:28;5.27;;;2.40;;
1613;SDS011;800;48.824;9.346;2023-10-19T11:51:54;3.20;;;2.80;;
1613;SDS011;800;48.824;9.346;2023-10-19T11:54:19;3.00;;;2.67;;
1613;SDS011;800;48.824;9.346;2023-10-19T11:56:45;4.03;;;2.90;;
1613;SDS011;800;48.824;9.346;2023-10-19T11:59:11;3.90;;;3.40;;
1613;SDS011;800;48.824;9.346;2023-10-19T12:01:37;3.30;;;3.00;;
1613;SDS011;800;48.824;9.346;2023-10-19T12:04:03;4.23;;;2.73;;
1613;SDS011;800;48.824;9.346;2023-10-19T12:06:30;4.67;;;3.33;;
1613;SDS011;800;48.824;9.346;2023-10-19T12:08:56;4.03;;;3.27;;
1613;SDS011;800;48.824;9.346;2023-10-19T12:11:27;3.50;;;3.20;;
1613;SDS011;800;48.824;9.346;2023-10-19T12:13:53;4.13;;;3.57;;
1613;SDS011;800;48.824;9.346;2023-10-19T12:16:19;4.23;;;3.00;;
1613;SDS011;800;48.824;9.346;2023-10-19T12:18:46;3.63;;;3.33;;
1613;SDS011;800;48.824;9.346;2023-10-19T12:21:13;7.47;;;4.30;;
1613;SDS011;800;48.824;9.346;2023-10-19T12:23:39;5.20;;;4.17;;
1613;SDS011;800;48.824;9.346;2023-10-19T12:26:05;4.40;;;3.50;;
1613;SDS011;800;48.824;9.346;2023-10-19T12:28:36;5.27;;;3.80;;
1613;SDS011;800;48.824;9.346;2023-10-19T12:31:03;4.17;;;3.60;;
1613;SDS011;800;48.824;9.346;2023-10-19T12:33:30;5.10;;;3.77;;
1613;SDS011;800;48.824;9.346;2023-10-19T12:35:56;4.13;;;3.83;;
1613;SDS011;800;48.824;9.346;2023-10-19T12:38:24;4.50;;;3.60;;
1613;SDS011;800;48.824;9.346;2023-10-19T12:40:50;5.03;;;4.00;;
1613;SDS011;800;48.824;9.346;2023-10-19T12:43:17;5.93;;;5.33;;
1613;SDS011;800;48.824;9.346;2023-10-19T12:45:50;7.13;;;6.10;;
1613;SDS011;800;48.824;9.346;2023-10-19T12:48:18;7.67;;;5.70;;
1613;SDS011;800;48.824;9.346;2023-10-19T12:50:44;6.27;;;5.70;;
1613;SDS011;800;48.824;9.346;2023-10-19T12:53:10;8.63;;;6.57;;
1613;SDS011;800;48.824;9.346;2023-10-19T12:55:36;8.33;;;6.30;;
1613;SDS011;800;48.824;9.346;2023-10-19T12:58:04;8.70;;;7.90;;
1613;SDS011;800;48.824;9.346;2023-10-19T13:00:36;9.80;;;7.30;;
1613;SDS011;800;48.824;9.346;2023-10-19T13:03:06;9.10;;;8.10;;
1613;SDS011;800;48.824;9.346;2023-10-19T13:05:33;9.60;;;6.77;;
1613;SDS011;800;48.824;9.346;2023-10-19T13:08:03;7.00;;;6.30;;
1613;SDS011;800;48.824;9.346;2023-10-19T13:10:31;7.30;;;6.70;;
1613;SDS011;800;48.824;9.346;2023-10-19T13:13:05;6.57;;;5.93;;
1613;SDS011;800;48.824;9.346;2023-10-19T13:15:33;7.30;;;6.60;;
1613;SDS011;800;48.824;9.346;2023-10-19T13:18:00;8.30;;;7.53;;
1613;SDS011;800;48.824;9.346;2023-10-19T13:20:26;7.60;;;6.47;;
1613;SDS011;800;48.824;9.346;2023-10-19T13:22:53;9.10;;;7.47;;
1613;SDS011;800;48.824;9.346;2023-10-19T13:25:21;8.83;;;7.93;;
1613;SDS011;800;48.824;9.346;2023-10-19T13:28:03;8.80;;;8.00;;
1613;SDS011;800;48.824;9.346;2023-10-19T13:30:37;10.53;;;7.83;;
1613;SDS011;800;48.824;9.346;2023-10-19T13:33:06;9.00;;;7.23;;
1613;SDS011;800;48.824;9.346;2023-10-19T13:35:36;8.70;;;6.87;;
1613;SDS011;800;48.824;9.346;2023-10-19T13:38:06;10.97;;;7.57;;
1613;SDS011;800;48.824;9.346;2023-10-19T13:40:40;7.00;;;6.10;;
1613;SDS011;800;48.824;9.346;2023-10-19T13:43:07;5.13;;;4.63;;
1613;SDS011;800;48.824;9.346;2023-10-19T13:45:34;6.90;;;4.93;;
1613;SDS011;800;48.824;9.346;2023-10-19T13:48:01;5.90;;;5.40;;
1613;SDS011;800;48.824;9.346;2023-10-19T13:50:28;6.03;;;5.20;;
1613;SDS011;800;48.824;9.346;2023-10-19T13:52:55;4.53;;;4.20;;
1613;SDS011;800;48.824;9.346;2023-10-19T13:55:25;5.43;;;5.03;;
1613;SDS011;800;48.824;9.346;2023-10-19T13:57:51;6.47;;;4.13;;
1613;SDS011;800;48.824;9.346;2023-10-19T14:00:17;5.80;;;4.37;;
1613;SDS011;800;48.824;9.346;2023-10-19T14:02:58;5.00;;;4.17;;
1613;SDS011;800;48.824;9.346;2023-10-19T14:05:25;4.47;;;4.07;;
1613;SDS011;800;48.824;9.346;2023-10-19T14:07:51;5.10;;;4.60;;
1613;SDS011;800;48.824;9.346;2023-10-19T14:10:19;4.57;;;4.17;;
1613;SDS011;800;48.824;9.346;2023-10-19T14:12:46;5.80;;;5.23;;
1613;SDS011;800;48.824;9.346;2023-10-19T14:15:13;8.13;;;6.17;;
1613;SDS011;800;48.824;9.346;2023-10-19T14:17:42;6.07;;;5.10;;
1613;SDS011;800;48.824;9.346;2023-10-19T14:20:10;7.50;;;5.93;;
1613;SDS011;800;48.824;9.346;2023-10-19T14:22:38;7.30;;;5.50;;
1613;SDS011;800;48.824;9.346;2023-10-19T14:25:08;6.30;;;5.80;;
1613;SDS011;800;48.824;9.346;2023-10-19T14:27:38;6.70;;;5.80;;
1613;SDS011;800;48.824;9.346;2023-10-19T14:30:11;7.20;;;6.37;;
1613;SDS011;800;48.824;9.346;2023-10-19T14:32:41;5.70;;;4.90;;
1613;SDS011;800;48.824;9.346;2023-10-19T14:35:08;5.83;;;5.33;;
1613;SDS011;800;48.824;9.346;2023-10-19T14:37:36;6.20;;;5.33;;
1613;SDS011;800;48.824;9.346;2023-10-19T14:40:09;6.57;;;5.97;;
1613;SDS011;800;48.824;9.346;2023-10-19T14:42:37;6.80;;;6.20;;
1613;SDS011;800;48.824;9.346;2023-10-19T14:45:07;8.70;;;5.70;;
1613;SDS011;800;48.824;9.346;2023-10-19T14:47:37;8.57;;;6.30;;
1613;SDS011;800;48.824;9.346;2023-10-19T14:50:06;6.63;;;5.70;;
1613;SDS011;800;48.824;9.346;2023-10-19T14:52:36;6.93;;;5.40;;
1613;SDS011;800;48.824;9.346;2023-10-19T14:55:03;6.20;;;5.20;;
1613;SDS011;800;48.824;9.346;2023-10-19T14:57:31;6.20;;;5.50;;
1613;SDS011;800;48.824;9.346;2023-10-19T14:59:59;7.80;;;6.00;;
1613;SDS011;800;48.824;9.346;2023-10-19T15:02:41;5.60;;;5.03;;
1613;SDS011;800;48.824;9.346;2023-10-19T15:05:09;8.80;;;6.00;;
1613;SDS011;800;48.824;9.346;2023-10-19T15:07:38;6.20;;;5.23;;
1613;SDS011;800;48.824;9.346;2023-10-19T15:10:05;7.43;;;5.77;;
1613;SDS011;800;48.824;9.346;2023-10-19T15:12:34;5.60;;;5.10;;
1613;SDS011;800;48.824;9.346;2023-10-19T15:15:01;7.63;;;5.43;;
1613;SDS011;800;48.824;9.346;2023-10-19T15:17:26;6.83;;;4.30;;
1613;SDS011;800;48.824;9.346;2023-10-19T15:19:52;5.13;;;4.63;;
1613;SDS011;800;48.824;9.346;2023-10-19T15:22:18;11.07;;;6.50;;
1613;SDS011;800;48.824;9.346;2023-10-19T15:24:44;8.90;;;5.83;;
1613;SDS011;800;48.824;9.346;2023-10-19T15:27:10;9.00;;;6.23;;
1613;SDS011;800;48.824;9.346;2023-10-19T15:29:35;6.43;;;5.70;;
1613;SDS011;800;48.824;9.346;2023-10-19T15:32:01;6.97;;;6.00;;
1613;SDS011;800;48.824;9.346;2023-10-19T15:34:26;6.13;;;5.53;;
1613;SDS011;800;48.824;9.346;2023-10-19T15:36:54;8.30;;;6.60;;
1613;SDS011;800;48.824;9.346;2023-10-19T15:39:19;7.13;;;6.50;;
1613;SDS011;800;48.824;9.346;2023-10-19T15:41:46;8.00;;;7.20;;
1613;SDS011;800;48.824;9.346;2023-10-19T15:44:11;11.03;;;7.27;;
1613;SDS011;800;48.824;9.346;2023-10-19T15:46:37;7.17;;;6.10;;